createdAt,value
2023-04-15T00:00:01.243Z,1003.78
2023-04-15T00:01:01.236Z,1003.75
2023-04-15T00:02:01.500Z,1003.73
2023-04-15T00:03:01.380Z,1003.74
2023-04-15T00:04:01.339Z,1003.72
2023-04-15T00:05:01.266Z,1003.72
2023-04-15T00:06:01.211Z,1003.72
2023-04-15T00:07:01.159Z,1003.73
2023-04-15T00:08:01.195Z,1003.73
2023-04-15T00:09:01.563Z,1003.75
2023-04-15T00:10:01.113Z,1003.75
2023-04-15T00:11:01.131Z,1003.75
2023-04-15T00:12:01.193Z,1003.76
2023-04-15T00:13:01.125Z,1003.74
2023-04-15T00:14:01.128Z,1003.73
2023-04-15T00:15:01.169Z,1003.73
2023-04-15T00:16:01.119Z,1003.73
2023-04-15T00:17:01.148Z,1003.71
2023-04-15T00:18:01.213Z,1003.71
2023-04-15T00:19:01.291Z,1003.72
2023-04-15T00:20:01.016Z,1003.72
2023-04-15T00:21:01.042Z,1003.72
2023-04-15T00:22:00.989Z,1003.71
2023-04-15T00:23:00.991Z,1003.71
2023-04-15T00:24:00.998Z,1003.70
2023-04-15T00:25:01.015Z,1003.71
2023-04-15T00:26:00.988Z,1003.72
2023-04-15T00:27:00.997Z,1003.73
2023-04-15T00:28:00.938Z,1003.73
2023-04-15T00:29:01.116Z,1003.72
2023-04-15T00:30:01.019Z,1003.74
2023-04-15T00:31:00.948Z,1003.73
2023-04-15T00:32:01.015Z,1003.74
2023-04-15T00:33:00.923Z,1003.74
2023-04-15T00:34:00.944Z,1003.73
2023-04-15T00:35:00.945Z,1003.73
2023-04-15T00:36:00.893Z,1003.72
2023-04-15T00:37:00.880Z,1003.71
2023-04-15T00:38:00.848Z,1003.72
2023-04-15T00:39:01.050Z,1003.71
2023-04-15T00:40:00.867Z,1003.70
2023-04-15T00:41:00.834Z,1003.70
2023-04-15T00:42:00.867Z,1003.69
2023-04-15T00:43:00.818Z,1003.68
2023-04-15T00:44:00.806Z,1003.68
2023-04-15T00:45:00.819Z,1003.69
2023-04-15T00:46:00.909Z,1003.70
2023-04-15T00:47:00.770Z,1003.70
2023-04-15T00:48:00.900Z,1003.71
2023-04-15T00:49:00.847Z,1003.69
2023-04-15T00:50:00.757Z,1003.68
2023-04-15T00:51:00.738Z,1003.67
2023-04-15T00:52:00.708Z,1003.66
2023-04-15T00:53:00.738Z,1003.66
2023-04-15T00:54:00.679Z,1003.67
2023-04-15T00:55:00.682Z,1003.67
2023-04-15T00:56:00.724Z,1003.67
2023-04-15T00:57:00.662Z,1003.67
2023-04-15T00:58:00.744Z,1003.66
2023-04-15T00:59:00.814Z,1003.66
2023-04-15T01:00:00.643Z,1003.65
2023-04-15T01:01:00.650Z,1003.64
2023-04-15T01:02:00.793Z,1003.63
2023-04-15T01:03:00.817Z,1003.63
2023-04-15T01:04:00.680Z,1003.63
2023-04-15T01:05:00.616Z,1003.62
2023-04-15T01:06:03.421Z,1003.63
2023-04-15T01:07:00.576Z,1003.62
2023-04-15T01:08:00.588Z,1003.61
2023-04-15T01:09:00.718Z,1003.61
2023-04-15T01:10:00.541Z,1003.60
2023-04-15T01:11:00.533Z,1003.59
2023-04-15T01:12:00.500Z,1003.57
2023-04-15T01:13:00.521Z,1003.57
2023-04-15T01:14:00.490Z,1003.57
2023-04-15T01:15:00.511Z,1003.58
2023-04-15T01:16:00.576Z,1003.59
2023-04-15T01:17:00.488Z,1003.59
2023-04-15T01:18:00.579Z,1003.60
2023-04-15T01:19:00.658Z,1003.59
2023-04-15T01:20:00.440Z,1003.59
2023-04-15T01:21:00.428Z,1003.60
2023-04-15T01:22:00.391Z,1003.61
2023-04-15T01:23:00.411Z,1003.61
2023-04-15T01:24:00.447Z,1003.61
2023-04-15T01:25:00.445Z,1003.62
2023-04-15T01:26:00.363Z,1003.64
2023-04-15T01:27:00.356Z,1003.66
2023-04-15T01:28:00.322Z,1003.67
2023-04-15T01:29:01.309Z,1003.67
2023-04-15T01:30:00.342Z,1003.66
2023-04-15T01:31:00.388Z,1003.65
2023-04-15T01:32:00.314Z,1003.65
2023-04-15T01:33:00.409Z,1003.66
2023-04-15T01:34:00.295Z,1003.66
2023-04-15T01:35:00.316Z,1003.66
2023-04-15T01:36:00.246Z,1003.66
2023-04-15T01:37:00.326Z,1003.66
2023-04-15T01:38:00.292Z,1003.67
2023-04-15T01:39:00.659Z,1003.67
2023-04-15T01:40:00.299Z,1003.67
2023-04-15T01:41:00.307Z,1003.65
2023-04-15T01:42:00.229Z,1003.64
2023-04-15T01:43:00.257Z,1003.64
2023-04-15T01:44:00.201Z,1003.65
2023-04-15T01:45:00.181Z,1003.66
2023-04-15T01:46:00.182Z,1003.66
2023-04-15T01:47:00.336Z,1003.66
2023-04-15T01:48:00.232Z,1003.67
2023-04-15T01:49:00.364Z,1003.67
2023-04-15T01:50:00.136Z,1003.69
2023-04-15T01:51:00.191Z,1003.69
2023-04-15T01:52:00.130Z,1003.71
2023-04-15T01:53:00.114Z,1003.72
2023-04-15T01:54:00.145Z,1003.72
2023-04-15T01:55:00.056Z,1003.71
2023-04-15T01:56:00.103Z,1003.71
2023-04-15T01:57:00.131Z,1003.72
2023-04-15T01:58:00.055Z,1003.73
2023-04-15T01:59:00.246Z,1003.72
2023-04-15T02:00:00.161Z,1003.73
2023-04-15T02:01:00.151Z,1003.73
2023-04-15T02:02:00.090Z,1003.73
2023-04-15T02:03:00.045Z,1003.72
2023-04-15T02:04:00.020Z,1003.72
2023-04-15T02:04:59.975Z,1003.72
2023-04-15T02:05:59.987Z,1003.73
2023-04-15T02:06:59.964Z,1003.74
2023-04-15T02:07:59.944Z,1003.75
2023-04-15T02:09:00.261Z,1003.77
2023-04-15T02:09:59.909Z,1003.77
2023-04-15T02:10:59.953Z,1003.77
2023-04-15T02:11:59.895Z,1003.77
2023-04-15T02:12:59.969Z,1003.76
2023-04-15T02:13:59.878Z,1003.76
2023-04-15T02:14:59.904Z,1003.76
2023-04-15T02:15:59.909Z,1003.76
2023-04-15T02:16:59.927Z,1003.77
2023-04-15T02:17:59.880Z,1003.77
2023-04-15T02:19:00.144Z,1003.75
2023-04-15T02:19:59.832Z,1003.75
2023-04-15T02:20:59.829Z,1003.74
2023-04-15T02:21:59.786Z,1003.74
2023-04-15T02:22:59.796Z,1003.75
2023-04-15T02:23:59.805Z,1003.77
2023-04-15T02:24:59.869Z,1003.78
2023-04-15T02:25:59.743Z,1003.79
2023-04-15T02:26:59.736Z,1003.80
2023-04-15T02:27:59.777Z,1003.80
2023-04-15T02:28:59.950Z,1003.81
2023-04-15T02:29:59.720Z,1003.82
2023-04-15T02:30:59.755Z,1003.85
2023-04-15T02:31:59.735Z,1003.86
2023-04-15T02:32:59.733Z,1003.86
2023-04-15T02:33:59.752Z,1003.87
2023-04-15T02:34:59.678Z,1003.88
2023-04-15T02:35:59.651Z,1003.88
2023-04-15T02:36:59.657Z,1003.88
2023-04-15T02:37:59.666Z,1003.89
2023-04-15T02:38:59.838Z,1003.90
2023-04-15T02:39:59.660Z,1003.90
2023-04-15T02:41:00.223Z,1003.90
2023-04-15T02:41:59.604Z,1003.90
2023-04-15T02:42:59.562Z,1003.91
2023-04-15T02:43:59.635Z,1003.91
2023-04-15T02:44:59.604Z,1003.91
2023-04-15T02:45:59.572Z,1003.91
2023-04-15T02:46:59.574Z,1003.93
2023-04-15T02:47:59.625Z,1003.95
2023-04-15T02:48:59.990Z,1003.97
2023-04-15T02:49:59.493Z,1003.98
2023-04-15T02:50:59.540Z,1004.00
2023-04-15T02:52:00.094Z,1004.02
2023-04-15T02:52:59.536Z,1004.04
2023-04-15T02:53:59.474Z,1004.05
2023-04-15T02:54:59.485Z,1004.04
2023-04-15T02:55:59.455Z,1004.03
2023-04-15T02:56:59.472Z,1004.02
2023-04-15T02:57:59.437Z,1004.02
2023-04-15T02:58:59.551Z,1004.02
2023-04-15T02:59:59.400Z,1004.03
2023-04-15T03:00:59.456Z,1004.05
2023-04-15T03:01:59.423Z,1004.06
2023-04-15T03:02:59.557Z,1004.07
2023-04-15T03:03:59.456Z,1004.08
2023-04-15T03:04:59.360Z,1004.10
2023-04-15T03:05:59.329Z,1004.14
2023-04-15T03:06:59.356Z,1004.14
2023-04-15T03:07:59.310Z,1004.14
2023-04-15T03:08:59.442Z,1004.13
2023-04-15T03:09:59.328Z,1004.14
2023-04-15T03:10:59.311Z,1004.15
2023-04-15T03:11:59.278Z,1004.15
2023-04-15T03:12:59.291Z,1004.17
2023-04-15T03:13:59.245Z,1004.18
2023-04-15T03:14:59.267Z,1004.20
2023-04-15T03:15:59.326Z,1004.21
2023-04-15T03:16:59.232Z,1004.21
2023-04-15T03:17:59.309Z,1004.21
2023-04-15T03:18:59.369Z,1004.22
2023-04-15T03:19:59.289Z,1004.22
2023-04-15T03:20:59.255Z,1004.23
2023-04-15T03:21:59.224Z,1004.25
2023-04-15T03:22:59.220Z,1004.27
2023-04-15T03:23:59.155Z,1004.28
2023-04-15T03:24:59.191Z,1004.28
2023-04-15T03:25:59.121Z,1004.29
2023-04-15T03:26:59.109Z,1004.29
2023-04-15T03:27:59.118Z,1004.31
2023-04-15T03:28:59.364Z,1004.32
2023-04-15T03:29:59.100Z,1004.33
2023-04-15T03:30:59.121Z,1004.34
2023-04-15T03:31:59.078Z,1004.34
2023-04-15T03:32:59.240Z,1004.34
2023-04-15T03:33:59.102Z,1004.33
2023-04-15T03:34:59.045Z,1004.34
2023-04-15T03:35:59.129Z,1004.34
2023-04-15T03:36:59.019Z,1004.34
2023-04-15T03:37:58.996Z,1004.34
2023-04-15T03:38:59.232Z,1004.35
2023-04-15T03:39:59.020Z,1004.36
2023-04-15T03:40:58.979Z,1004.37
2023-04-15T03:41:58.973Z,1004.37
2023-04-15T03:42:58.947Z,1004.37
2023-04-15T03:43:58.973Z,1004.38
2023-04-15T03:44:58.936Z,1004.39
2023-04-15T03:46:00.208Z,1004.40
2023-04-15T03:46:58.906Z,1004.38
2023-04-15T03:48:15.631Z,1004.38
2023-04-15T03:48:59.081Z,1004.38
2023-04-15T03:49:58.920Z,1004.38
2023-04-15T03:50:58.897Z,1004.38
2023-04-15T03:51:58.891Z,1004.39
2023-04-15T03:52:58.867Z,1004.40
2023-04-15T03:53:58.883Z,1004.39
2023-04-15T03:54:58.836Z,1004.39
2023-04-15T03:55:58.871Z,1004.39
2023-04-15T03:56:58.821Z,1004.39
2023-04-15T03:57:58.824Z,1004.40
2023-04-15T03:58:59.311Z,1004.40
2023-04-15T03:59:58.775Z,1004.40
2023-04-15T04:00:58.755Z,1004.40
2023-04-15T04:01:58.821Z,1004.40
2023-04-15T04:02:58.880Z,1004.38
2023-04-15T04:03:58.818Z,1004.38
2023-04-15T04:04:58.705Z,1004.38
2023-04-15T04:05:58.676Z,1004.40
2023-04-15T04:06:58.656Z,1004.42
2023-04-15T04:07:58.628Z,1004.42
2023-04-15T04:08:58.878Z,1004.42
2023-04-15T04:09:58.689Z,1004.45
2023-04-15T04:10:58.606Z,1004.46
2023-04-15T04:11:58.656Z,1004.47
2023-04-15T04:12:58.571Z,1004.47
2023-04-15T04:13:58.633Z,1004.48
2023-04-15T04:14:58.558Z,1004.49
2023-04-15T04:15:58.827Z,1004.50
2023-04-15T04:16:58.584Z,1004.50
2023-04-15T04:17:58.623Z,1004.50
2023-04-15T04:18:58.530Z,1004.52
2023-04-15T04:19:58.567Z,1004.52
2023-04-15T04:20:58.510Z,1004.53
2023-04-15T04:21:58.536Z,1004.52
2023-04-15T04:22:58.496Z,1004.53
2023-04-15T04:23:58.519Z,1004.53
2023-04-15T04:24:58.479Z,1004.53
2023-04-15T04:25:58.459Z,1004.55
2023-04-15T04:26:58.478Z,1004.57
2023-04-15T04:27:58.464Z,1004.56
2023-04-15T04:28:58.566Z,1004.55
2023-04-15T04:29:58.495Z,1004.55
2023-04-15T04:30:58.387Z,1004.56
2023-04-15T04:31:58.531Z,1004.55
2023-04-15T04:32:58.463Z,1004.55
2023-04-15T04:33:58.380Z,1004.56
2023-04-15T04:34:58.368Z,1004.57
2023-04-15T04:35:58.384Z,1004.60
2023-04-15T04:36:58.391Z,1004.61
2023-04-15T04:37:58.364Z,1004.61
2023-04-15T04:38:58.379Z,1004.61
2023-04-15T04:39:58.306Z,1004.59
2023-04-15T04:40:58.346Z,1004.61
2023-04-15T04:41:58.311Z,1004.61
2023-04-15T04:42:58.299Z,1004.62
2023-04-15T04:43:58.269Z,1004.62
2023-04-15T04:44:58.289Z,1004.63
2023-04-15T04:45:58.305Z,1004.62
2023-04-15T04:46:58.247Z,1004.63
2023-04-15T04:47:58.301Z,1004.64
2023-04-15T04:48:58.197Z,1004.65
2023-04-15T04:49:58.193Z,1004.65
2023-04-15T04:50:58.217Z,1004.65
2023-04-15T04:51:58.606Z,1004.66
2023-04-15T04:52:58.253Z,1004.67
2023-04-15T04:53:58.152Z,1004.68
2023-04-15T04:54:58.134Z,1004.69
2023-04-15T04:55:58.166Z,1004.71
2023-04-15T04:56:58.104Z,1004.72
2023-04-15T04:57:58.153Z,1004.75
2023-04-15T04:58:58.277Z,1004.78
2023-04-15T04:59:58.102Z,1004.81
2023-04-15T05:00:58.148Z,1004.83
2023-04-15T05:01:58.141Z,1004.84
2023-04-15T05:02:58.168Z,1004.86
2023-04-15T05:03:58.312Z,1004.88
2023-04-15T05:04:58.064Z,1004.89
2023-04-15T05:05:58.083Z,1004.89
2023-04-15T05:06:58.029Z,1004.90
2023-04-15T05:07:58.073Z,1004.92
2023-04-15T05:08:57.997Z,1004.93
2023-04-15T05:09:58.018Z,1004.94
2023-04-15T05:10:58.011Z,1004.94
2023-04-15T05:11:57.975Z,1004.92
2023-04-15T05:12:57.949Z,1004.94
2023-04-15T05:13:58.022Z,1004.95
2023-04-15T05:14:57.971Z,1004.98
2023-04-15T05:15:58.043Z,1004.99
2023-04-15T05:16:57.967Z,1005.01
2023-04-15T05:17:58.010Z,1005.03
2023-04-15T05:18:57.972Z,1005.04
2023-04-15T05:19:57.879Z,1005.06
2023-04-15T05:20:57.890Z,1005.07
2023-04-15T05:21:57.929Z,1005.09
2023-04-15T05:22:57.864Z,1005.10
2023-04-15T05:23:57.882Z,1005.11
2023-04-15T05:24:57.851Z,1005.12
2023-04-15T05:25:57.843Z,1005.12
2023-04-15T05:26:57.808Z,1005.13
2023-04-15T05:27:57.877Z,1005.14
2023-04-15T05:28:57.812Z,1005.16
2023-04-15T05:29:57.800Z,1005.19
2023-04-15T05:30:57.839Z,1005.20
2023-04-15T05:31:57.810Z,1005.21
2023-04-15T05:32:57.822Z,1005.22
2023-04-15T05:33:57.794Z,1005.23
2023-04-15T05:34:57.738Z,1005.24
2023-04-15T05:35:57.720Z,1005.26
2023-04-15T05:36:57.754Z,1005.28
2023-04-15T05:37:57.828Z,1005.28
2023-04-15T05:38:57.730Z,1005.30
2023-04-15T05:39:57.700Z,1005.31
2023-04-15T05:40:57.747Z,1005.32
2023-04-15T05:41:57.732Z,1005.34
2023-04-15T05:42:57.772Z,1005.34
2023-04-15T05:43:57.671Z,1005.34
2023-04-15T05:44:57.633Z,1005.35
2023-04-15T05:45:57.694Z,1005.35
2023-04-15T05:46:57.618Z,1005.35
2023-04-15T05:47:57.696Z,1005.35
2023-04-15T05:48:57.623Z,1005.36
2023-04-15T05:49:57.587Z,1005.37
2023-04-15T05:50:57.629Z,1005.40
2023-04-15T05:51:57.610Z,1005.41
2023-04-15T05:52:57.540Z,1005.42
2023-04-15T05:53:57.599Z,1005.44
2023-04-15T05:54:57.521Z,1005.45
2023-04-15T05:55:57.540Z,1005.45
2023-04-15T05:56:57.517Z,1005.47
2023-04-15T05:57:57.504Z,1005.49
2023-04-15T05:58:57.497Z,1005.49
2023-04-15T05:59:57.523Z,1005.51
2023-04-15T06:00:57.488Z,1005.51
2023-04-15T06:01:57.520Z,1005.53
2023-04-15T06:02:57.583Z,1005.54
2023-04-15T06:03:57.667Z,1005.55
2023-04-15T06:04:57.516Z,1005.58
2023-04-15T06:05:57.424Z,1005.59
2023-04-15T06:06:57.405Z,1005.61
2023-04-15T06:07:57.410Z,1005.62
2023-04-15T06:08:57.475Z,1005.62
2023-04-15T06:09:57.420Z,1005.63
2023-04-15T06:10:57.389Z,1005.63
2023-04-15T06:11:57.360Z,1005.64
2023-04-15T06:12:57.351Z,1005.65
2023-04-15T06:13:57.362Z,1005.66
2023-04-15T06:14:58.977Z,1005.67
2023-04-15T06:15:57.328Z,1005.70
2023-04-15T06:16:57.358Z,1005.71
2023-04-15T06:17:57.416Z,1005.70
2023-04-15T06:18:57.283Z,1005.70
2023-04-15T06:19:57.304Z,1005.72
2023-04-15T06:20:57.274Z,1005.73
2023-04-15T06:21:57.292Z,1005.73
2023-04-15T06:22:57.269Z,1005.74
2023-04-15T06:23:57.280Z,1005.74
2023-04-15T06:24:57.627Z,1005.75
2023-04-15T06:25:57.223Z,1005.76
2023-04-15T06:26:57.251Z,1005.77
2023-04-15T06:27:57.237Z,1005.78
2023-04-15T06:28:57.262Z,1005.81
2023-04-15T06:29:57.181Z,1005.80
2023-04-15T06:30:57.153Z,1005.81
2023-04-15T06:31:57.212Z,1005.82
2023-04-15T06:32:57.231Z,1005.82
2023-04-15T06:33:57.148Z,1005.82
2023-04-15T06:34:57.132Z,1005.85
2023-04-15T06:35:57.144Z,1005.87
2023-04-15T06:36:57.106Z,1005.87
2023-04-15T06:37:57.089Z,1005.88
2023-04-15T06:38:57.088Z,1005.88
2023-04-15T06:39:57.120Z,1005.88
2023-04-15T06:40:57.084Z,1005.87
2023-04-15T06:41:57.088Z,1005.88
2023-04-15T06:42:57.051Z,1005.87
2023-04-15T06:43:57.033Z,1005.88
2023-04-15T06:44:57.016Z,1005.87
2023-04-15T06:45:57.206Z,1005.87
2023-04-15T06:46:57.033Z,1005.88
2023-04-15T06:47:57.059Z,1005.89
2023-04-15T06:48:56.976Z,1005.87
2023-04-15T06:49:57.002Z,1005.90
2023-04-15T06:50:56.982Z,1005.88
2023-04-15T06:51:56.962Z,1005.90
2023-04-15T06:52:56.979Z,1005.89
2023-04-15T06:53:56.996Z,1005.91
2023-04-15T06:54:57.025Z,1005.92
2023-04-15T06:55:56.947Z,1005.93
2023-04-15T06:56:56.920Z,1005.95
2023-04-15T06:57:56.915Z,1005.96
2023-04-15T06:58:56.884Z,1005.95
2023-04-15T06:59:56.916Z,1005.95
2023-04-15T07:00:56.877Z,1005.96
2023-04-15T07:01:56.881Z,1005.96
2023-04-15T07:02:56.906Z,1005.96
2023-04-15T07:03:56.870Z,1005.95
2023-04-15T07:04:56.820Z,1005.95
2023-04-15T07:05:57.603Z,1005.97
2023-04-15T07:06:56.782Z,1005.99
2023-04-15T07:07:56.819Z,1005.99
2023-04-15T07:08:57.003Z,1005.98
2023-04-15T07:09:56.798Z,1005.99
2023-04-15T07:10:56.747Z,1006.00
2023-04-15T07:11:56.761Z,1006.00
2023-04-15T07:12:56.777Z,1006.00
2023-04-15T07:13:56.751Z,1006.04
2023-04-15T07:14:56.758Z,1006.04
2023-04-15T07:15:56.699Z,1006.05
2023-04-15T07:16:56.784Z,1006.07
2023-04-15T07:17:56.821Z,1006.08
2023-04-15T07:18:56.673Z,1006.09
2023-04-15T07:19:56.689Z,1006.10
2023-04-15T07:20:56.654Z,1006.11
2023-04-15T07:21:56.654Z,1006.12
2023-04-15T07:22:56.681Z,1006.13
2023-04-15T07:23:56.633Z,1006.13
2023-04-15T07:24:56.606Z,1006.14
2023-04-15T07:25:56.644Z,1006.15
2023-04-15T07:26:58.482Z,1006.14
2023-04-15T07:27:56.620Z,1006.14
2023-04-15T07:28:56.605Z,1006.13
2023-04-15T07:29:56.588Z,1006.14
2023-04-15T07:30:56.592Z,1006.16
2023-04-15T07:31:56.523Z,1006.16
2023-04-15T07:32:56.571Z,1006.16
2023-04-15T07:33:56.506Z,1006.17
2023-04-15T07:34:56.541Z,1006.17
2023-04-15T07:35:56.540Z,1006.18
2023-04-15T07:36:56.539Z,1006.17
2023-04-15T07:37:56.505Z,1006.17
2023-04-15T07:38:56.483Z,1006.16
2023-04-15T07:39:56.455Z,1006.18
2023-04-15T07:40:56.509Z,1006.19
2023-04-15T07:41:56.444Z,1006.21
2023-04-15T07:42:56.425Z,1006.22
2023-04-15T07:43:56.413Z,1006.23
2023-04-15T07:44:56.449Z,1006.24
2023-04-15T07:45:56.448Z,1006.24
2023-04-15T07:46:56.452Z,1006.25
2023-04-15T07:47:56.454Z,1006.26
2023-04-15T07:48:56.352Z,1006.28
2023-04-15T07:49:56.360Z,1006.27
2023-04-15T07:50:56.368Z,1006.29
2023-04-15T07:51:56.338Z,1006.30
2023-04-15T07:52:56.314Z,1006.33
2023-04-15T07:53:56.293Z,1006.31
2023-04-15T07:54:56.347Z,1006.33
2023-04-15T07:55:56.269Z,1006.34
2023-04-15T07:56:56.289Z,1006.31
2023-04-15T07:57:56.309Z,1006.35
2023-04-15T07:58:56.286Z,1006.35
2023-04-15T07:59:56.244Z,1006.34
2023-04-15T08:00:56.209Z,1006.35
2023-04-15T08:01:56.292Z,1006.37
2023-04-15T08:02:56.416Z,1006.39
2023-04-15T08:03:56.394Z,1006.42
2023-04-15T08:04:56.309Z,1006.39
2023-04-15T08:05:56.149Z,1006.42
2023-04-15T08:06:56.179Z,1006.41
2023-04-15T08:07:56.160Z,1006.44
2023-04-15T08:08:56.173Z,1006.45
2023-04-15T08:09:56.151Z,1006.45
2023-04-15T08:10:56.138Z,1006.44
2023-04-15T08:11:56.146Z,1006.47
2023-04-15T08:12:56.107Z,1006.48
2023-04-15T08:13:56.089Z,1006.51
2023-04-15T08:14:56.109Z,1006.47
2023-04-15T08:15:56.124Z,1006.46
2023-04-15T08:16:56.094Z,1006.48
2023-04-15T08:17:56.075Z,1006.45
2023-04-15T08:18:56.067Z,1006.47
2023-04-15T08:19:56.038Z,1006.45
2023-04-15T08:20:56.006Z,1006.47
2023-04-15T08:21:56.014Z,1006.46
2023-04-15T08:22:56.054Z,1006.43
2023-04-15T08:23:56.022Z,1006.47
2023-04-15T08:24:56.293Z,1006.47
2023-04-15T08:25:56.016Z,1006.48
2023-04-15T08:26:56.109Z,1006.52
2023-04-15T08:27:55.937Z,1006.51
2023-04-15T08:28:55.960Z,1006.52
2023-04-15T08:29:55.879Z,1006.56
2023-04-15T08:30:55.915Z,1006.55
2023-04-15T08:31:56.016Z,1006.54
2023-04-15T08:32:55.962Z,1006.55
2023-04-15T08:33:55.876Z,1006.59
2023-04-15T08:34:55.901Z,1006.56
2023-04-15T08:35:55.828Z,1006.56
2023-04-15T08:36:55.863Z,1006.55
2023-04-15T08:37:55.823Z,1006.59
2023-04-15T08:38:55.877Z,1006.58
2023-04-15T08:39:55.793Z,1006.57
2023-04-15T08:40:55.805Z,1006.59
2023-04-15T08:41:55.858Z,1006.60
2023-04-15T08:42:55.788Z,1006.63
2023-04-15T08:43:55.775Z,1006.63
2023-04-15T08:44:55.810Z,1006.60
2023-04-15T08:45:55.760Z,1006.65
2023-04-15T08:46:55.780Z,1006.66
2023-04-15T08:47:55.887Z,1006.63
2023-04-15T08:48:55.790Z,1006.67
2023-04-15T08:49:55.753Z,1006.71
2023-04-15T08:50:55.698Z,1006.70
2023-04-15T08:51:55.677Z,1006.71
2023-04-15T08:52:55.685Z,1006.76
2023-04-15T08:53:55.649Z,1006.72
2023-04-15T08:54:55.703Z,1006.77
2023-04-15T08:55:55.635Z,1006.75
2023-04-15T08:56:55.701Z,1006.77
2023-04-15T08:57:55.674Z,1006.77
2023-04-15T08:58:55.740Z,1006.75
2023-04-15T08:59:55.580Z,1006.81
2023-04-15T09:00:55.757Z,1006.81
2023-04-15T09:01:55.664Z,1006.82
2023-04-15T09:02:55.666Z,1006.78
2023-04-15T09:03:55.664Z,1006.79
2023-04-15T09:04:55.607Z,1006.80
2023-04-15T09:05:55.533Z,1006.82
2023-04-15T09:06:55.543Z,1006.82
2023-04-15T09:07:55.588Z,1006.83
2023-04-15T09:08:55.601Z,1006.84
2023-04-15T09:09:55.581Z,1006.85
2023-04-15T09:10:55.535Z,1006.91
2023-04-15T09:11:55.471Z,1006.92
2023-04-15T09:12:55.472Z,1006.92
2023-04-15T09:13:55.508Z,1006.97
2023-04-15T09:14:55.438Z,1007.01
2023-04-15T09:15:55.438Z,1006.98
2023-04-15T09:16:55.490Z,1007.04
2023-04-15T09:17:55.460Z,1006.97
2023-04-15T09:18:55.478Z,1007.02
2023-04-15T09:19:55.385Z,1007.07
2023-04-15T09:20:55.502Z,1007.06
2023-04-15T09:21:58.001Z,1007.06
2023-04-15T09:22:55.386Z,1007.07
2023-04-15T09:23:55.354Z,1007.07
2023-04-15T09:24:55.373Z,1007.09
2023-04-15T09:25:55.423Z,1007.11
2023-04-15T09:26:55.424Z,1007.12
2023-04-15T09:27:55.351Z,1007.14
2023-04-15T09:28:55.305Z,1007.11
2023-04-15T09:29:55.316Z,1007.11
2023-04-15T09:30:55.336Z,1007.15
2023-04-15T09:31:55.284Z,1007.14
2023-04-15T09:32:55.324Z,1007.16
2023-04-15T09:33:55.272Z,1007.19
2023-04-15T09:34:55.239Z,1007.20
2023-04-15T09:35:55.217Z,1007.20
2023-04-15T09:36:55.253Z,1007.20
2023-04-15T09:37:55.268Z,1007.21
2023-04-15T09:38:55.196Z,1007.21
2023-04-15T09:39:55.168Z,1007.22
2023-04-15T09:40:55.204Z,1007.24
2023-04-15T09:41:55.564Z,1007.25
2023-04-15T09:42:55.199Z,1007.24
2023-04-15T09:43:55.166Z,1007.28
2023-04-15T09:44:55.141Z,1007.28
2023-04-15T09:45:55.146Z,1007.29
2023-04-15T09:46:55.145Z,1007.31
2023-04-15T09:47:56.921Z,1007.28
2023-04-15T09:48:55.237Z,1007.27
2023-04-15T09:49:55.157Z,1007.28
2023-04-15T09:50:55.261Z,1007.29
2023-04-15T09:52:04.431Z,1007.28
2023-04-15T09:52:55.047Z,1007.34
2023-04-15T09:53:55.159Z,1007.31
2023-04-15T09:55:18.653Z,1007.32
2023-04-15T09:55:55.038Z,1007.33
2023-04-15T09:56:55.019Z,1007.32
2023-04-15T09:57:54.992Z,1007.33
2023-04-15T09:58:55.066Z,1007.35
2023-04-15T09:59:54.976Z,1007.33
2023-04-15T10:00:54.961Z,1007.32
2023-04-15T10:01:55.231Z,1007.35
2023-04-15T10:02:55.325Z,1007.34
2023-04-15T10:03:55.250Z,1007.37
2023-04-15T10:04:54.983Z,1007.35
2023-04-15T10:05:55.270Z,1007.36
2023-04-15T10:06:54.946Z,1007.36
2023-04-15T10:07:54.916Z,1007.39
2023-04-15T10:08:54.910Z,1007.42
2023-04-15T10:09:54.874Z,1007.37
2023-04-15T10:10:54.853Z,1007.40
2023-04-15T10:11:54.881Z,1007.42
2023-04-15T10:12:54.850Z,1007.41
2023-04-15T10:13:54.846Z,1007.42
2023-04-15T10:14:54.828Z,1007.42
2023-04-15T10:15:54.880Z,1007.45
2023-04-15T10:16:54.808Z,1007.42
2023-04-15T10:17:54.824Z,1007.43
2023-04-15T10:18:54.813Z,1007.42
2023-04-15T10:19:54.799Z,1007.45
2023-04-15T10:20:54.882Z,1007.48
2023-04-15T10:21:54.742Z,1007.50
2023-04-15T10:22:54.727Z,1007.52
2023-04-15T10:23:54.805Z,1007.51
2023-04-15T10:24:54.749Z,1007.50
2023-04-15T10:25:54.712Z,1007.53
2023-04-15T10:26:54.712Z,1007.53
2023-04-15T10:27:54.670Z,1007.55
2023-04-15T10:28:54.739Z,1007.56
2023-04-15T10:29:54.700Z,1007.58
2023-04-15T10:30:54.704Z,1007.57
2023-04-15T10:31:54.690Z,1007.61
2023-04-15T10:32:54.662Z,1007.63
2023-04-15T10:33:54.607Z,1007.61
2023-04-15T10:34:54.864Z,1007.61
2023-04-15T10:35:54.689Z,1007.60
2023-04-15T10:36:54.621Z,1007.60
2023-04-15T10:37:54.632Z,1007.66
2023-04-15T10:38:54.595Z,1007.61
2023-04-15T10:39:54.551Z,1007.67
2023-04-15T10:40:54.530Z,1007.65
2023-04-15T10:41:54.559Z,1007.66
2023-04-15T10:42:54.562Z,1007.70
2023-04-15T10:43:54.523Z,1007.70
2023-04-15T10:44:54.615Z,1007.71
2023-04-15T10:45:54.498Z,1007.72
2023-04-15T10:46:54.623Z,1007.72
2023-04-15T10:47:54.569Z,1007.71
2023-04-15T10:48:54.489Z,1007.71
2023-04-15T10:49:54.481Z,1007.70
2023-04-15T10:50:54.448Z,1007.73
2023-04-15T10:51:54.435Z,1007.73
2023-04-15T10:52:54.468Z,1007.74
2023-04-15T10:53:54.404Z,1007.77
2023-04-15T10:54:54.392Z,1007.75
2023-04-15T10:55:54.474Z,1007.75
2023-04-15T10:56:54.387Z,1007.76
2023-04-15T10:57:54.559Z,1007.76
2023-04-15T10:58:54.373Z,1007.78
2023-04-15T10:59:54.381Z,1007.77
2023-04-15T11:00:54.350Z,1007.77
2023-04-15T11:01:54.526Z,1007.81
2023-04-15T11:02:54.422Z,1007.83
2023-04-15T11:03:54.457Z,1007.82
2023-04-15T11:04:54.349Z,1007.86
2023-04-15T11:05:54.347Z,1007.82
2023-04-15T11:06:54.295Z,1007.84
2023-04-15T11:07:54.320Z,1007.84
2023-04-15T11:08:54.300Z,1007.81
2023-04-15T11:09:54.481Z,1007.79
2023-04-15T11:10:54.273Z,1007.80
2023-04-15T11:11:54.227Z,1007.81
2023-04-15T11:12:54.225Z,1007.83
2023-04-15T11:13:54.201Z,1007.82
2023-04-15T11:14:54.201Z,1007.81
2023-04-15T11:15:54.222Z,1007.81
2023-04-15T11:16:54.188Z,1007.83
2023-04-15T11:17:54.213Z,1007.83
2023-04-15T11:18:54.202Z,1007.85
2023-04-15T11:19:54.123Z,1007.86
2023-04-15T11:20:54.165Z,1007.88
2023-04-15T11:21:54.112Z,1007.89
2023-04-15T11:23:02.574Z,1007.89
2023-04-15T11:23:54.255Z,1007.93
2023-04-15T11:24:54.131Z,1007.95
2023-04-15T11:25:54.088Z,1007.98
2023-04-15T11:26:54.065Z,1007.96
2023-04-15T11:27:54.088Z,1007.97
2023-04-15T11:28:54.091Z,1007.99
2023-04-15T11:29:54.025Z,1008.00
2023-04-15T11:30:54.056Z,1008.01
2023-04-15T11:31:54.062Z,1008.03
2023-04-15T11:32:54.046Z,1008.04
2023-04-15T11:33:54.049Z,1008.06
2023-04-15T11:34:54.019Z,1008.04
2023-04-15T11:35:53.972Z,1008.05
2023-04-15T11:36:53.956Z,1008.08
2023-04-15T11:37:53.933Z,1008.10
2023-04-15T11:38:53.979Z,1008.10
2023-04-15T11:39:53.911Z,1008.13
2023-04-15T11:40:53.907Z,1008.11
2023-04-15T11:41:53.901Z,1008.09
2023-04-15T11:42:53.928Z,1008.11
2023-04-15T11:43:53.890Z,1008.12
2023-04-15T11:44:53.900Z,1008.15
2023-04-15T11:45:53.927Z,1008.14
2023-04-15T11:46:53.887Z,1008.14
2023-04-15T11:47:53.935Z,1008.17
2023-04-15T11:48:53.866Z,1008.13
2023-04-15T11:49:53.832Z,1008.13
2023-04-15T11:50:53.788Z,1008.12
2023-04-15T11:51:53.814Z,1008.14
2023-04-15T11:52:53.808Z,1008.16
2023-04-15T11:53:53.778Z,1008.15
2023-04-15T11:54:53.788Z,1008.18
2023-04-15T11:55:53.737Z,1008.18
2023-04-15T11:56:53.753Z,1008.15
2023-04-15T11:57:53.742Z,1008.18
2023-04-15T11:58:53.753Z,1008.22
2023-04-15T11:59:53.717Z,1008.22
2023-04-15T12:00:53.704Z,1008.34
2023-04-15T12:01:53.722Z,1008.25
2023-04-15T12:02:53.810Z,1008.23
2023-04-15T12:03:53.770Z,1008.23
2023-04-15T12:04:53.778Z,1008.22